createdAt,value
2022-08-23T00:02:26.401Z,3.60
2022-08-23T00:05:07.995Z,2.73
2022-08-23T00:07:39.128Z,2.60
2022-08-23T00:10:11.737Z,2.83
2022-08-23T00:12:39.236Z,4.03
2022-08-23T00:15:08.926Z,3.40
2022-08-23T00:17:36.575Z,3.23
2022-08-23T00:20:06.767Z,3.27
2022-08-23T00:22:33.853Z,2.93
2022-08-23T00:25:00.767Z,3.73
2022-08-23T00:27:28.519Z,3.60
2022-08-23T00:29:57.412Z,3.33
2022-08-23T00:32:28.062Z,3.80
2022-08-23T00:34:55.848Z,3.00
2022-08-23T00:37:23.930Z,3.40
2022-08-23T00:39:50.905Z,3.47
2022-08-23T00:42:57.635Z,3.57
2022-08-23T00:45:49.178Z,3.60
2022-08-23T00:48:16.285Z,3.90
2022-08-23T00:51:08.569Z,3.80
2022-08-23T00:53:42.657Z,3.87
2022-08-23T00:56:12.373Z,3.80
2022-08-23T00:58:40.645Z,4.20
2022-08-23T01:01:07.757Z,3.97
2022-08-23T01:03:39.741Z,4.53
2022-08-23T01:06:33.361Z,3.97
2022-08-23T01:09:05.195Z,3.60
2022-08-23T01:11:33.997Z,4.20
2022-08-23T01:14:12.050Z,3.70
2022-08-23T01:16:45.587Z,4.57
2022-08-23T01:19:23.058Z,4.27
2022-08-23T01:21:59.826Z,3.90
2022-08-23T01:25:05.999Z,3.93
2022-08-23T01:27:14.663Z,4.60
2022-08-23T01:29:42.353Z,4.77
2022-08-23T01:32:09.977Z,4.70
2022-08-23T01:34:37.167Z,5.10
2022-08-23T01:37:13.517Z,4.87
2022-08-23T01:39:40.687Z,4.30
2022-08-23T01:42:08.079Z,4.70
2022-08-23T01:44:35.351Z,5.07
2022-08-23T01:47:02.548Z,5.13
2022-08-23T01:49:30.509Z,4.80
2022-08-23T01:51:57.274Z,4.80
2022-08-23T01:54:24.035Z,4.07
2022-08-23T01:56:50.834Z,4.80
2022-08-23T01:59:17.817Z,4.73
2022-08-23T02:01:44.724Z,4.47
2022-08-23T02:04:11.632Z,4.07
2022-08-23T02:06:38.542Z,3.80
2022-08-23T02:09:06.041Z,4.33
2022-08-23T02:11:45.185Z,3.67
2022-08-23T02:14:18.985Z,4.30
2022-08-23T02:17:03.009Z,4.20
2022-08-23T02:19:33.158Z,4.17
2022-08-23T02:22:00.245Z,3.93
2022-08-23T02:24:27.366Z,4.57
2022-08-23T02:26:57.330Z,3.77
2022-08-23T02:29:26.167Z,3.30
2022-08-23T02:31:53.378Z,3.77
2022-08-23T02:34:22.908Z,3.77
2022-08-23T02:36:52.145Z,3.87
2022-08-23T02:39:19.638Z,4.50
2022-08-23T02:41:47.141Z,4.33
2022-08-23T02:44:14.167Z,3.90
2022-08-23T02:46:42.040Z,4.37
2022-08-23T02:49:09.206Z,4.70
2022-08-23T02:51:36.122Z,4.30
2022-08-23T02:54:03.262Z,4.40
2022-08-23T02:56:33.160Z,5.10
2022-08-23T02:59:00.449Z,5.97
2022-08-23T03:01:30.633Z,5.47
2022-08-23T03:03:58.444Z,5.77
2022-08-23T03:06:26.621Z,6.07
2022-08-23T03:08:56.622Z,5.43
2022-08-23T03:11:25.004Z,5.33
2022-08-23T03:13:53.253Z,4.73
2022-08-23T03:16:20.909Z,4.80
2022-08-23T03:18:48.833Z,5.50
2022-08-23T03:21:16.485Z,5.80
2022-08-23T03:23:43.409Z,4.73
2022-08-23T03:26:12.743Z,5.57
2022-08-23T03:28:41.735Z,5.83
2022-08-23T03:31:09.896Z,5.50
2022-08-23T03:33:38.254Z,5.53
2022-08-23T03:36:08.407Z,5.00
2022-08-23T03:38:36.327Z,5.67
2022-08-23T03:41:03.644Z,6.00
2022-08-23T03:43:30.945Z,5.60
2022-08-23T03:45:57.875Z,6.27
2022-08-23T03:48:25.405Z,5.90
2022-08-23T03:50:54.503Z,5.10
2022-08-23T03:53:23.770Z,5.00
2022-08-23T03:55:53.251Z,5.10
2022-08-23T03:58:21.451Z,5.27
2022-08-23T04:00:48.543Z,4.70
2022-08-23T04:03:15.265Z,4.37
2022-08-23T04:05:42.149Z,4.80
2022-08-23T04:08:10.298Z,5.20
2022-08-23T04:10:39.405Z,4.77
2022-08-23T04:13:08.447Z,4.73
2022-08-23T04:15:35.454Z,4.70
2022-08-23T04:18:02.377Z,4.73
2022-08-23T04:20:29.539Z,5.00
2022-08-23T04:22:57.048Z,4.27
2022-08-23T04:25:33.697Z,4.07
2022-08-23T04:28:02.206Z,4.70
2022-08-23T04:30:29.758Z,4.33
2022-08-23T04:32:56.439Z,4.77
2022-08-23T04:35:23.542Z,4.53
2022-08-23T04:37:50.592Z,4.70
2022-08-23T04:40:36.029Z,4.13
2022-08-23T04:43:02.846Z,4.80
2022-08-23T04:45:29.958Z,5.23
2022-08-23T04:47:56.810Z,4.60
2022-08-23T04:50:23.667Z,4.57
2022-08-23T04:52:50.428Z,4.77
2022-08-23T04:55:17.355Z,4.70
2022-08-23T04:57:44.709Z,3.97
2022-08-23T05:00:13.554Z,4.87
2022-08-23T05:02:40.358Z,4.50
2022-08-23T05:05:08.489Z,4.80
2022-08-23T05:07:42.407Z,4.80
2022-08-23T05:10:12.874Z,4.90
2022-08-23T05:12:40.210Z,4.10
2022-08-23T05:15:09.419Z,4.60
2022-08-23T05:17:36.974Z,4.93
2022-08-23T05:20:06.133Z,3.73
2022-08-23T05:22:38.196Z,4.97
2022-08-23T05:25:05.644Z,4.40
2022-08-23T05:27:32.622Z,4.27
2022-08-23T05:29:59.531Z,4.77
2022-08-23T05:32:27.701Z,5.03
2022-08-23T05:34:57.091Z,4.80
2022-08-23T05:37:23.804Z,5.20
2022-08-23T05:39:50.569Z,5.10
2022-08-23T05:42:17.421Z,5.00
2022-08-23T05:44:45.477Z,4.80
2022-08-23T05:47:15.604Z,4.67
2022-08-23T05:49:43.026Z,6.20
2022-08-23T05:52:12.609Z,6.03
2022-08-23T05:54:39.486Z,6.00
2022-08-23T05:57:06.789Z,5.57
2022-08-23T05:59:34.429Z,6.53
2022-08-23T06:02:01.904Z,5.97
2022-08-23T06:04:28.795Z,5.83
2022-08-23T06:06:58.705Z,5.87
2022-08-23T06:09:26.339Z,5.43
2022-08-23T06:11:53.215Z,5.57
2022-08-23T06:14:20.034Z,5.80
2022-08-23T06:16:50.847Z,6.07
2022-08-23T06:19:20.878Z,5.57
2022-08-23T06:21:48.316Z,5.67
2022-08-23T06:24:15.279Z,5.60
2022-08-23T06:26:45.370Z,5.30
2022-08-23T06:29:15.055Z,5.20
2022-08-23T06:31:49.069Z,4.80
2022-08-23T06:34:26.580Z,4.77
2022-08-23T06:36:58.065Z,4.90
2022-08-23T06:39:26.959Z,5.20
2022-08-23T06:42:00.607Z,5.30
2022-08-23T06:44:28.358Z,4.50
2022-08-23T06:46:56.694Z,4.37
2022-08-23T06:49:24.696Z,4.13
2022-08-23T06:51:55.870Z,3.90
2022-08-23T06:54:26.739Z,4.17
2022-08-23T06:56:54.086Z,3.40
2022-08-23T06:59:21.327Z,3.57
2022-08-23T07:02:01.346Z,3.67
2022-08-23T07:04:34.744Z,3.90
2022-08-23T07:07:03.090Z,3.60
2022-08-23T07:09:31.569Z,3.57
2022-08-23T07:11:59.866Z,4.23
2022-08-23T07:14:27.729Z,3.37
2022-08-23T07:16:57.099Z,4.23
2022-08-23T07:19:29.221Z,3.70
2022-08-23T07:21:57.299Z,4.40
2022-08-23T07:24:28.136Z,3.70
2022-08-23T07:26:57.916Z,4.10
2022-08-23T07:29:24.745Z,4.63
2022-08-23T07:31:55.131Z,4.40
2022-08-23T07:34:23.429Z,5.17
2022-08-23T07:36:54.041Z,3.90
2022-08-23T07:39:22.588Z,4.00
2022-08-23T07:41:49.831Z,3.60
2022-08-23T07:44:18.171Z,4.10
2022-08-23T07:46:46.661Z,3.90
2022-08-23T07:49:14.546Z,3.73
2022-08-23T07:51:45.449Z,3.53
2022-08-23T07:54:12.955Z,3.73
2022-08-23T07:56:40.578Z,3.80
2022-08-23T07:59:08.229Z,3.60
2022-08-23T08:01:35.518Z,3.60
2022-08-23T08:04:04.337Z,3.77
2022-08-23T08:06:40.086Z,4.03
2022-08-23T08:09:07.279Z,3.87
2022-08-23T08:11:35.720Z,3.90
2022-08-23T08:14:06.512Z,3.87
2022-08-23T08:16:36.851Z,3.77
2022-08-23T08:19:07.660Z,4.10
2022-08-23T08:21:35.998Z,3.43
2022-08-23T08:24:07.879Z,3.50
2022-08-23T08:26:34.819Z,3.50
2022-08-23T08:29:01.635Z,3.10
2022-08-23T08:31:28.701Z,3.97
2022-08-23T08:33:55.729Z,3.63
2022-08-23T08:36:33.469Z,3.20
2022-08-23T08:39:00.769Z,3.40
2022-08-23T08:41:40.782Z,3.67
2022-08-23T08:44:16.417Z,4.17
2022-08-23T08:46:50.112Z,3.03
2022-08-23T08:49:24.478Z,3.33
2022-08-23T08:51:59.575Z,3.40
2022-08-23T08:54:29.346Z,3.50
2022-08-23T08:56:59.218Z,3.30
2022-08-23T08:59:38.393Z,2.70
2022-08-23T09:02:07.494Z,2.80
2022-08-23T09:04:54.555Z,2.57
2022-08-23T09:07:37.739Z,3.23
2022-08-23T09:10:25.352Z,3.10
2022-08-23T09:13:04.021Z,2.33
2022-08-23T09:15:39.934Z,3.00
2022-08-23T09:18:15.778Z,2.43
2022-08-23T09:20:52.233Z,2.40
2022-08-23T09:23:26.121Z,2.47
2022-08-23T09:26:03.778Z,2.10
2022-08-23T09:28:34.826Z,2.50
2022-08-23T09:31:02.658Z,2.40
2022-08-23T09:33:38.259Z,2.90
2022-08-23T09:36:06.905Z,1.83
2022-08-23T09:38:34.424Z,2.37
2022-08-23T09:41:01.614Z,2.30
2022-08-23T09:43:42.586Z,1.93
2022-08-23T09:46:09.416Z,2.23
2022-08-23T09:48:39.918Z,2.53
2022-08-23T09:51:35.979Z,2.60
2022-08-23T09:54:07.168Z,3.07
2022-08-23T09:56:45.111Z,2.40
2022-08-23T09:59:52.549Z,2.90
2022-08-23T10:02:37.552Z,2.77
2022-08-23T10:05:18.398Z,2.20
2022-08-23T10:07:56.078Z,2.30
2022-08-23T10:10:23.840Z,2.50
2022-08-23T10:12:51.455Z,2.03
2022-08-23T10:15:18.753Z,2.83
2022-08-23T10:18:10.649Z,2.50
2022-08-23T10:21:06.204Z,2.00
2022-08-23T10:23:38.122Z,2.30
2022-08-23T10:26:08.015Z,2.23
2022-08-23T10:29:24.681Z,2.30
2022-08-23T10:32:00.662Z,2.03
2022-08-23T10:34:45.961Z,2.00
2022-08-23T10:37:30.912Z,2.40
2022-08-23T10:40:09.813Z,1.70
2022-08-23T10:43:01.707Z,2.20
2022-08-23T10:45:38.807Z,1.80
2022-08-23T10:48:28.872Z,2.57
2022-08-23T10:51:06.704Z,2.10
2022-08-23T10:53:36.675Z,2.50
2022-08-23T10:56:04.496Z,2.47
2022-08-23T10:58:41.314Z,2.37
2022-08-23T11:01:12.032Z,2.30
2022-08-23T11:03:47.737Z,2.47
2022-08-23T11:06:36.397Z,2.20
2022-08-23T11:09:15.182Z,2.30
2022-08-23T11:12:06.102Z,2.43
2022-08-23T11:14:41.836Z,2.53
2022-08-23T11:17:24.986Z,2.40
2022-08-23T11:20:00.749Z,2.40
2022-08-23T11:22:33.593Z,2.30
2022-08-23T11:25:02.295Z,2.10
2022-08-23T11:28:13.746Z,2.10
2022-08-23T11:30:46.270Z,1.73
2022-08-23T11:33:19.183Z,1.77
2022-08-23T11:36:13.871Z,2.07
2022-08-23T11:38:43.729Z,1.83
2022-08-23T11:41:26.534Z,1.57
2022-08-23T11:43:56.135Z,1.60
2022-08-23T11:46:25.891Z,1.97
2022-08-23T11:49:28.889Z,2.00
2022-08-23T11:52:14.186Z,1.90
2022-08-23T11:55:00.510Z,1.83
2022-08-23T11:57:54.518Z,2.17
2022-08-23T12:00:59.636Z,1.90
2022-08-23T12:03:51.942Z,1.73
2022-08-23T12:06:57.974Z,1.73
2022-08-23T12:09:24.671Z,1.67
2022-08-23T12:11:57.601Z,2.87
2022-08-23T12:14:51.645Z,2.40
2022-08-23T12:17:19.332Z,2.40
2022-08-23T12:19:51.191Z,2.03
2022-08-23T12:22:31.030Z,2.10
2022-08-23T12:25:03.423Z,1.77
2022-08-23T12:27:34.835Z,2.27
2022-08-23T12:30:22.439Z,1.93
2022-08-23T12:33:07.815Z,2.13
2022-08-23T12:35:46.652Z,2.00
2022-08-23T12:38:19.470Z,2.10
2022-08-23T12:40:54.595Z,1.70
2022-08-23T12:43:30.424Z,2.27
2022-08-23T12:46:01.543Z,2.13
2022-08-23T12:48:32.335Z,2.10
2022-08-23T12:51:07.546Z,1.73
2022-08-23T12:53:44.023Z,2.03
2022-08-23T12:56:31.396Z,1.90
2022-08-23T12:59:05.265Z,2.10
2022-08-23T13:01:35.817Z,2.40
2022-08-23T13:04:14.205Z,1.43
2022-08-23T13:06:47.411Z,1.97
2022-08-23T13:09:22.545Z,1.87
2022-08-23T13:11:49.537Z,2.77
2022-08-23T13:14:44.154Z,2.10
2022-08-23T13:17:20.023Z,1.80
2022-08-23T13:19:48.963Z,2.10
2022-08-23T13:22:22.191Z,2.47
2022-08-23T13:25:24.795Z,1.67
2022-08-23T13:27:44.873Z,2.10
2022-08-23T13:30:11.575Z,1.80
2022-08-23T13:32:47.060Z,1.70
2022-08-23T13:35:31.395Z,2.10
2022-08-23T13:38:06.930Z,2.37
2022-08-23T13:40:43.279Z,2.03
2022-08-23T13:43:20.975Z,2.00
2022-08-23T13:45:54.776Z,1.80
2022-08-23T13:48:35.206Z,2.10
2022-08-23T13:51:40.190Z,2.03
2022-08-23T13:54:12.849Z,2.30
2022-08-23T13:56:48.223Z,2.17
2022-08-23T13:59:26.929Z,2.60
2022-08-23T14:02:01.814Z,2.10
2022-08-23T14:04:28.827Z,2.20
2022-08-23T14:06:55.564Z,1.60
2022-08-23T14:09:22.353Z,1.97
2022-08-23T14:11:55.365Z,1.80
2022-08-23T14:14:22.228Z,2.43
2022-08-23T14:16:49.141Z,2.00
2022-08-23T14:19:17.998Z,1.70
2022-08-23T14:22:02.875Z,2.20
2022-08-23T14:24:30.341Z,1.57
2022-08-23T14:26:57.758Z,1.97
2022-08-23T14:29:27.981Z,2.00
2022-08-23T14:31:55.415Z,2.50
2022-08-23T14:34:22.286Z,1.93
2022-08-23T14:39:38.276Z,2.33
2022-08-23T14:42:05.841Z,2.20
2022-08-23T14:44:35.718Z,1.90
2022-08-23T14:47:03.335Z,2.27
2022-08-23T14:49:30.106Z,2.00
2022-08-23T14:51:56.897Z,2.07
2022-08-23T14:54:25.704Z,2.40
2022-08-23T14:56:53.461Z,2.40
2022-08-23T14:59:20.612Z,2.00
2022-08-23T15:01:49.608Z,1.77
2022-08-23T15:04:23.199Z,2.10
2022-08-23T15:07:16.299Z,2.47
2022-08-23T15:09:38.285Z,1.90
2022-08-23T15:14:52.704Z,2.03
2022-08-23T15:17:19.676Z,1.77
2022-08-23T15:19:46.418Z,1.83
2022-08-23T15:22:21.502Z,2.13
2022-08-23T15:24:49.640Z,2.30
2022-08-23T15:27:24.538Z,2.10
2022-08-23T15:29:51.293Z,2.57
2022-08-23T15:32:22.651Z,2.10
2022-08-23T15:34:50.482Z,2.40
2022-08-23T15:37:20.265Z,1.93
2022-08-23T15:39:47.121Z,2.17
2022-08-23T15:42:20.102Z,2.10
2022-08-23T15:44:48.141Z,1.77
2022-08-23T15:47:27.767Z,2.13
2022-08-23T15:49:55.872Z,2.33
2022-08-23T15:52:22.685Z,2.13
2022-08-23T15:54:49.448Z,2.37
2022-08-23T15:57:21.706Z,2.13
2022-08-23T15:59:48.503Z,1.73
2022-08-23T16:02:15.654Z,2.00
2022-08-23T16:04:42.546Z,2.10
2022-08-23T16:07:12.812Z,2.40
2022-08-23T16:09:40.829Z,2.00
2022-08-23T16:12:08.464Z,2.13
2022-08-23T16:14:36.742Z,2.30
2022-08-23T16:17:04.221Z,2.13
2022-08-23T16:19:31.364Z,2.10
2022-08-23T16:21:59.976Z,2.13
2022-08-23T16:24:27.834Z,2.57
2022-08-23T16:26:55.277Z,2.17
2022-08-23T16:29:22.194Z,2.37
2022-08-23T16:31:49.123Z,1.87
2022-08-23T16:34:18.699Z,2.00
2022-08-23T16:36:56.497Z,2.53
2022-08-23T16:39:25.676Z,2.20
2022-08-23T16:41:52.482Z,1.97
2022-08-23T16:44:19.929Z,2.30
2022-08-23T16:46:46.869Z,2.20
2022-08-23T16:49:16.247Z,2.03
2022-08-23T16:51:43.307Z,2.10
2022-08-23T16:54:10.566Z,2.07
2022-08-23T16:56:39.198Z,2.13
2022-08-23T16:59:08.029Z,1.97
2022-08-23T17:01:51.297Z,2.33
2022-08-23T17:04:19.583Z,2.50
2022-08-23T17:06:46.691Z,2.30
2022-08-23T17:09:14.727Z,1.90
2022-08-23T17:11:43.790Z,2.47
2022-08-23T17:14:12.538Z,2.00
2022-08-23T17:16:41.632Z,1.90
2022-08-23T17:19:08.680Z,2.03
2022-08-23T17:21:35.523Z,3.00
2022-08-23T17:24:02.422Z,2.73
2022-08-23T17:26:29.258Z,2.10
2022-08-23T17:28:56.630Z,2.43
2022-08-23T17:31:24.758Z,2.23
2022-08-23T17:33:51.515Z,2.50
2022-08-23T17:36:28.490Z,2.70
2022-08-23T17:38:57.059Z,2.00
2022-08-23T17:41:27.254Z,2.80
2022-08-23T17:43:54.707Z,2.40
2022-08-23T17:46:21.777Z,2.60
2022-08-23T17:48:48.596Z,2.60
2022-08-23T17:51:15.398Z,2.50
2022-08-23T17:53:42.480Z,2.93
2022-08-23T17:56:12.244Z,3.50
2022-08-23T17:58:39.679Z,3.50
2022-08-23T18:01:06.826Z,3.50
2022-08-23T18:03:33.707Z,2.40
2022-08-23T18:06:01.204Z,2.90
2022-08-23T18:08:43.950Z,2.43
2022-08-23T18:11:11.093Z,2.53
2022-08-23T18:13:37.913Z,2.67
2022-08-23T18:16:05.314Z,2.80
2022-08-23T18:18:32.385Z,2.77
2022-08-23T18:21:03.727Z,2.40
2022-08-23T18:23:30.454Z,2.70
2022-08-23T18:25:57.232Z,2.90
2022-08-23T18:28:24.107Z,3.47
2022-08-23T18:30:54.893Z,2.20
2022-08-23T18:33:25.280Z,2.50
2022-08-23T18:35:58.302Z,2.93
2022-08-23T18:38:25.203Z,3.20
2022-08-23T18:40:52.244Z,2.57
2022-08-23T18:43:22.406Z,2.93
2022-08-23T18:45:54.093Z,2.77
2022-08-23T18:48:22.294Z,2.70
2022-08-23T18:50:49.776Z,2.37
2022-08-23T18:53:18.829Z,3.20
2022-08-23T18:55:46.300Z,4.30
2022-08-23T18:58:13.168Z,3.03
2022-08-23T19:00:41.086Z,2.63
2022-08-23T19:03:08.332Z,3.13
2022-08-23T19:05:41.883Z,3.17
2022-08-23T19:08:10.527Z,3.20
2022-08-23T19:10:37.957Z,3.57
2022-08-23T19:13:05.047Z,3.63
2022-08-23T19:15:34.341Z,3.60
2022-08-23T19:18:01.724Z,3.63
2022-08-23T19:20:29.166Z,4.10
2022-08-23T19:22:57.402Z,3.83
2022-08-23T19:25:25.213Z,4.10
2022-08-23T19:27:52.327Z,3.67
2022-08-23T19:30:19.145Z,4.23
2022-08-23T19:32:46.901Z,4.00
2022-08-23T19:35:14.468Z,3.40
2022-08-23T19:37:41.448Z,3.93
2022-08-23T19:40:08.908Z,4.10
2022-08-23T19:42:37.737Z,3.50
2022-08-23T19:45:06.296Z,4.10
2022-08-23T19:47:33.781Z,3.30
2022-08-23T19:50:00.742Z,3.10
2022-08-23T19:52:27.554Z,4.07
2022-08-23T19:54:57.927Z,3.93
2022-08-23T19:57:29.863Z,4.20
2022-08-23T20:00:01.316Z,4.00
2022-08-23T20:02:28.777Z,4.63
2022-08-23T20:04:55.763Z,3.50
2022-08-23T20:07:22.557Z,3.67
2022-08-23T20:09:49.384Z,3.20
2022-08-23T20:12:17.343Z,4.17
2022-08-23T20:14:44.740Z,3.80
2022-08-23T20:17:11.566Z,3.50
2022-08-23T20:19:38.488Z,3.73
2022-08-23T20:22:23.757Z,3.90
2022-08-23T20:24:52.899Z,3.87
2022-08-23T20:27:27.796Z,4.10
2022-08-23T20:29:59.028Z,3.20
2022-08-23T20:32:26.556Z,3.40
2022-08-23T20:34:53.522Z,4.30
2022-08-23T20:37:20.324Z,3.93
2022-08-23T20:39:47.132Z,4.30
2022-08-23T20:42:13.979Z,5.70
2022-08-23T20:44:40.770Z,4.17
2022-08-23T20:47:07.609Z,4.23
2022-08-23T20:49:34.491Z,5.10
2022-08-23T20:52:01.310Z,5.17
2022-08-23T20:54:28.146Z,4.77
2022-08-23T20:56:54.946Z,4.03
2022-08-23T20:59:22.106Z,4.43
2022-08-23T21:01:49.795Z,4.37
2022-08-23T21:04:17.114Z,4.70
2022-08-23T21:06:48.481Z,5.17
2022-08-23T21:09:19.360Z,4.40
2022-08-23T21:11:48.215Z,4.13
2022-08-23T21:14:15.933Z,5.13
2022-08-23T21:16:44.164Z,5.00
2022-08-23T21:19:10.937Z,4.60
2022-08-23T21:21:39.573Z,5.10
2022-08-23T21:24:07.882Z,5.10
2022-08-23T21:26:35.544Z,4.63
2022-08-23T21:29:03.044Z,5.47
2022-08-23T21:31:31.474Z,5.13
2022-08-23T21:34:00.221Z,4.80
2022-08-23T21:36:27.460Z,5.83
2022-08-23T21:38:54.288Z,5.90
2022-08-23T21:41:38.008Z,5.97
2022-08-23T21:44:08.345Z,5.70
2022-08-23T21:46:35.766Z,5.07
2022-08-23T21:49:03.510Z,5.10
2022-08-23T21:51:30.302Z,5.23
2022-08-23T21:53:57.817Z,5.60
2022-08-23T21:56:26.473Z,5.73
2022-08-23T21:58:57.324Z,5.27
2022-08-23T22:01:24.144Z,5.23
2022-08-23T22:03:56.192Z,5.27
2022-08-23T22:06:24.111Z,4.97
2022-08-23T22:08:50.900Z,5.87
2022-08-23T22:11:18.219Z,5.30
2022-08-23T22:13:45.379Z,5.80
2022-08-23T22:16:12.490Z,6.90
2022-08-23T22:18:39.379Z,5.47
2022-08-23T22:21:06.966Z,5.20
2022-08-23T22:23:36.367Z,5.97
2022-08-23T22:26:06.470Z,5.20
2022-08-23T22:28:33.898Z,5.47
2022-08-23T22:31:02.462Z,6.10
2022-08-23T22:33:29.875Z,5.00
2022-08-23T22:36:08.413Z,5.70
2022-08-23T22:38:35.265Z,6.17
2022-08-23T22:41:02.118Z,4.90
2022-08-23T22:43:29.346Z,6.07
2022-08-23T22:46:00.737Z,6.17
2022-08-23T22:48:29.870Z,6.23
2022-08-23T22:51:08.345Z,5.57
2022-08-23T22:53:37.877Z,5.70
2022-08-23T22:56:05.873Z,5.40
2022-08-23T22:58:33.138Z,5.30
2022-08-23T23:01:00.677Z,6.03
2022-08-23T23:03:31.742Z,5.93
2022-08-23T23:05:58.719Z,5.57
2022-08-23T23:08:27.450Z,6.70
2022-08-23T23:10:59.824Z,7.50
2022-08-23T23:13:29.654Z,6.00
2022-08-23T23:15:58.106Z,5.50
2022-08-23T23:18:26.800Z,6.63
2022-08-23T23:20:58.490Z,6.97
2022-08-23T23:23:26.836Z,5.97
2022-08-23T23:25:54.018Z,6.50
2022-08-23T23:28:21.871Z,6.53
2022-08-23T23:30:51.289Z,6.90
2022-08-23T23:33:19.421Z,6.67
2022-08-23T23:35:47.354Z,6.27
2022-08-23T23:38:15.178Z,6.77
2022-08-23T23:40:42.255Z,6.10
2022-08-23T23:43:12.885Z,6.50
2022-08-23T23:45:41.243Z,6.13
2022-08-23T23:48:08.895Z,6.33
2022-08-23T23:50:41.563Z,6.73
2022-08-23T23:53:11.985Z,6.47
2022-08-23T23:55:38.914Z,6.50
2022-08-23T23:58:05.938Z,6.47
